createdAt,value
2017-05-10T00:02:03.056Z,5.6
2017-05-10T00:07:03.186Z,5.6
2017-05-10T00:12:03.253Z,5.5
2017-05-10T00:17:03.178Z,5.5
2017-05-10T00:22:03.512Z,5.4
2017-05-10T00:27:03.306Z,5.2
2017-05-10T00:32:03.366Z,5.2
2017-05-10T00:37:03.115Z,5.2
2017-05-10T00:42:02.950Z,5.1
2017-05-10T00:47:03.038Z,5.0
2017-05-10T00:52:03.199Z,4.9
2017-05-10T00:57:03.137Z,5.0
2017-05-10T01:02:03.212Z,4.7
2017-05-10T01:07:03.425Z,4.5
2017-05-10T01:12:03.292Z,4.5
2017-05-10T01:17:03.370Z,4.5
2017-05-10T01:22:03.306Z,4.5
2017-05-10T01:27:03.436Z,4.5
2017-05-10T01:32:03.671Z,4.5
2017-05-10T01:37:02.956Z,4.5
2017-05-10T01:42:03.043Z,4.4
2017-05-10T01:47:02.967Z,4.3
2017-05-10T01:52:03.251Z,4.3
2017-05-10T01:57:03.264Z,4.2
2017-05-10T02:02:03.527Z,4.2
2017-05-10T02:07:02.983Z,4.1
2017-05-10T02:12:03.186Z,4.0
2017-05-10T02:17:03.237Z,3.8
2017-05-10T02:22:03.474Z,3.7
2017-05-10T02:27:03.476Z,3.7
2017-05-10T02:32:03.502Z,3.6
2017-05-10T02:37:03.100Z,3.7
2017-05-10T02:42:03.236Z,3.7
2017-05-10T02:47:03.516Z,3.6
2017-05-10T02:52:02.886Z,3.7
2017-05-10T02:57:03.118Z,3.6
2017-05-10T03:02:03.477Z,3.7
2017-05-10T03:07:02.918Z,3.7
2017-05-10T03:12:03.316Z,3.6
2017-05-10T03:17:13.428Z,3.7
2017-05-10T03:22:03.050Z,3.7
2017-05-10T03:27:03.482Z,3.7
2017-05-10T03:32:13.307Z,3.8
2017-05-10T03:37:03.004Z,3.7
2017-05-10T03:42:03.198Z,3.8
2017-05-10T03:47:13.534Z,3.7
2017-05-10T03:52:02.791Z,3.7
2017-05-10T03:57:03.325Z,3.7
2017-05-10T04:02:13.097Z,3.6
2017-05-10T04:07:03.403Z,3.6
2017-05-10T04:12:02.883Z,3.7
2017-05-10T04:17:23.331Z,3.7
2017-05-10T04:22:02.745Z,3.7
2017-05-10T04:27:03.256Z,3.7
2017-05-10T04:32:14.079Z,3.7
2017-05-10T04:37:02.868Z,3.8
2017-05-10T04:42:03.165Z,3.9
2017-05-10T04:47:14.056Z,4.0
2017-05-10T04:52:02.803Z,4.0
2017-05-10T04:57:03.194Z,4.0
2017-05-10T05:02:13.986Z,4.1
2017-05-10T05:07:03.027Z,4.2
2017-05-10T05:12:03.439Z,4.4
2017-05-10T05:17:17.020Z,4.5
2017-05-10T05:22:02.903Z,4.8
2017-05-10T05:27:03.325Z,5.5
2017-05-10T05:32:13.864Z,5.4
2017-05-10T05:37:03.670Z,5.7
2017-05-10T05:42:03.066Z,6.1
2017-05-10T05:47:13.705Z,6.4
2017-05-10T05:52:03.405Z,6.4
2017-05-10T05:57:02.750Z,6.6
2017-05-10T06:02:13.526Z,6.9
2017-05-10T06:07:03.507Z,6.9
2017-05-10T06:12:03.068Z,7.3
2017-05-10T06:17:13.874Z,7.9
2017-05-10T06:22:02.957Z,7.8
2017-05-10T06:27:03.394Z,8.1
2017-05-10T06:32:13.105Z,8.4
2017-05-10T06:37:02.971Z,8.7
2017-05-10T06:42:03.351Z,9.0
2017-05-10T06:47:22.832Z,9.7
2017-05-10T06:52:03.405Z,9.7
2017-05-10T06:57:02.782Z,10.1
2017-05-10T07:02:13.479Z,10.9
2017-05-10T07:07:03.326Z,11.2
2017-05-10T07:12:02.808Z,11.2
2017-05-10T07:17:13.868Z,11.8
2017-05-10T07:22:03.052Z,11.8
2017-05-10T07:27:03.479Z,12.3
2017-05-10T07:32:17.275Z,13.0
2017-05-10T07:37:03.225Z,12.9
2017-05-10T07:42:03.506Z,13.3
2017-05-10T07:47:11.328Z,13.5
2017-05-10T07:52:02.929Z,13.9
2017-05-10T07:57:03.254Z,14.5
2017-05-10T08:02:12.936Z,14.5
2017-05-10T08:07:03.491Z,14.8
2017-05-10T08:12:02.940Z,14.7
2017-05-10T08:17:03.913Z,15.2
2017-05-10T08:22:02.847Z,15.4
2017-05-10T08:27:03.079Z,15.4
2017-05-10T08:32:17.536Z,16.0
2017-05-10T08:37:02.837Z,16.0
2017-05-10T08:42:03.342Z,16.2
2017-05-10T08:47:16.728Z,16.2
2017-05-10T08:52:03.429Z,16.4
2017-05-10T08:57:02.861Z,16.8
2017-05-10T09:02:17.422Z,17.3
2017-05-10T09:07:03.380Z,17.8
2017-05-10T09:12:02.985Z,17.8
2017-05-10T09:17:17.257Z,18.1
2017-05-10T09:22:03.537Z,18.5
2017-05-10T09:27:03.511Z,18.6
2017-05-10T09:32:13.438Z,19.0
2017-05-10T09:37:03.457Z,19.0
2017-05-10T09:42:02.822Z,19.3
2017-05-10T09:47:13.351Z,19.6
2017-05-10T09:52:03.462Z,20.1
2017-05-10T09:57:03.136Z,20.1
2017-05-10T10:02:13.829Z,20.5
2017-05-10T10:07:03.272Z,20.5
2017-05-10T10:12:02.845Z,20.5
2017-05-10T10:17:03.236Z,21.0
2017-05-10T10:22:03.011Z,21.2
2017-05-10T10:27:03.141Z,21.2
2017-05-10T10:32:16.928Z,21.4
2017-05-10T10:37:03.014Z,21.6
2017-05-10T10:42:03.409Z,21.4
2017-05-10T10:47:13.395Z,21.6
2017-05-10T10:52:02.989Z,21.9
2017-05-10T10:57:03.447Z,22.0
2017-05-10T11:02:13.542Z,21.9
2017-05-10T11:07:03.434Z,22.5
2017-05-10T11:12:02.662Z,22.7
2017-05-10T11:17:16.839Z,22.7
2017-05-10T11:22:02.837Z,22.8
2017-05-10T11:27:03.359Z,23.1
2017-05-10T11:32:12.949Z,23.0
2017-05-10T11:37:02.759Z,22.9
2017-05-10T11:42:02.867Z,22.3
2017-05-10T11:47:17.147Z,22.3
2017-05-10T11:52:02.707Z,22.4
2017-05-10T11:57:03.238Z,22.9
2017-05-10T12:02:13.652Z,23.3
2017-05-10T12:07:03.177Z,24.1
2017-05-10T12:12:03.616Z,24.0
2017-05-10T12:17:13.421Z,24.2
2017-05-10T12:22:03.429Z,24.2
2017-05-10T12:27:02.921Z,24.1
2017-05-10T12:32:16.849Z,24.3
2017-05-10T12:37:02.927Z,24.5
2017-05-10T12:42:03.431Z,24.1
2017-05-10T12:47:13.011Z,24.1
2017-05-10T12:52:02.975Z,24.0
2017-05-10T12:57:02.875Z,24.8
2017-05-10T13:02:03.545Z,25.6
2017-05-10T13:07:03.209Z,25.6
2017-05-10T13:12:02.736Z,25.5
2017-05-10T13:17:16.875Z,25.6
2017-05-10T13:22:03.600Z,25.6
2017-05-10T13:27:02.913Z,26.2
2017-05-10T13:32:14.864Z,26.2
2017-05-10T13:37:03.298Z,26.7
2017-05-10T13:42:02.753Z,27.0
2017-05-10T13:47:13.255Z,27.7
2017-05-10T13:52:03.356Z,27.4
2017-05-10T13:57:02.815Z,27.3
2017-05-10T14:02:13.551Z,27.4
2017-05-10T14:07:03.001Z,27.8
2017-05-10T14:12:02.994Z,28.2
2017-05-10T14:17:13.451Z,29.6
2017-05-10T14:22:03.030Z,29.6
2017-05-10T14:27:03.474Z,30.5
2017-05-10T14:32:16.487Z,31.4
2017-05-10T14:37:03.457Z,32.8
2017-05-10T14:42:02.726Z,34.8
2017-05-10T14:47:13.728Z,36.9
2017-05-10T14:52:03.539Z,41.3
2017-05-10T14:57:02.911Z,41.2
2017-05-10T15:02:13.448Z,42.8
2017-05-10T15:07:02.950Z,45.6
2017-05-10T15:12:03.515Z,45.6
2017-05-10T15:17:13.584Z,46.6
2017-05-10T15:22:02.866Z,46.6
2017-05-10T15:27:03.236Z,47.8
2017-05-10T15:32:13.781Z,49.2
2017-05-10T15:37:03.562Z,50.1
2017-05-10T15:42:02.812Z,51.7
2017-05-10T15:47:13.718Z,52.1
2017-05-10T15:52:03.416Z,52.1
2017-05-10T15:57:02.713Z,52.7
2017-05-10T16:02:13.679Z,52.4
2017-05-10T16:07:03.420Z,53.0
2017-05-10T16:12:02.892Z,53.0
2017-05-10T16:17:17.710Z,53.8
2017-05-10T16:22:02.886Z,53.8
2017-05-10T16:27:03.236Z,53.8
2017-05-10T16:32:13.905Z,54.1
2017-05-10T16:37:03.030Z,53.8
2017-05-10T16:42:03.349Z,53.4
2017-05-10T16:47:15.818Z,53.4
2017-05-10T16:52:02.692Z,53.6
2017-05-10T16:57:02.992Z,53.6
2017-05-10T17:02:14.029Z,52.7
2017-05-10T17:07:02.997Z,52.9
2017-05-10T17:12:03.512Z,52.9
2017-05-10T17:17:15.627Z,52.4
2017-05-10T17:22:03.223Z,52.2
2017-05-10T17:27:03.568Z,51.3
2017-05-10T17:32:13.904Z,51.2
2017-05-10T17:37:03.106Z,50.4
2017-05-10T17:42:03.268Z,49.7
2017-05-10T17:47:14.358Z,48.1
2017-05-10T17:52:03.316Z,48.0
2017-05-10T17:57:03.581Z,42.8
2017-05-10T18:02:13.530Z,33.2
2017-05-10T18:07:03.427Z,30.8
2017-05-10T18:12:02.892Z,30.7
2017-05-10T18:17:19.393Z,27.8
2017-05-10T18:22:03.616Z,27.6
2017-05-10T18:27:02.994Z,26.6
2017-05-10T18:37:02.837Z,24.7
2017-05-10T18:42:03.285Z,23.2
2017-05-10T18:47:18.229Z,22.5
2017-05-10T18:52:03.167Z,21.8
2017-05-10T18:57:03.611Z,21.7
2017-05-10T19:07:03.139Z,19.8
2017-05-10T19:12:03.607Z,19.8
2017-05-10T19:17:13.710Z,18.7
2017-05-10T19:22:03.300Z,18.6
2017-05-10T19:27:03.649Z,18.2
2017-05-10T19:32:13.001Z,17.4
2017-05-10T19:37:02.932Z,17.4
2017-05-10T19:42:03.218Z,17.1
2017-05-10T19:47:09.368Z,16.8
2017-05-10T19:52:03.308Z,16.2
2017-05-10T19:57:03.348Z,16.1
2017-05-10T20:02:03.169Z,16.0
2017-05-10T20:07:03.152Z,15.7
2017-05-10T20:12:03.602Z,15.7
2017-05-10T20:17:03.786Z,15.5
2017-05-10T20:22:03.392Z,15.4
2017-05-10T20:27:03.644Z,15.4
2017-05-10T20:32:03.056Z,15.1
2017-05-10T20:37:03.277Z,14.9
2017-05-10T20:42:03.441Z,14.9
2017-05-10T20:47:03.312Z,14.8
2017-05-10T20:52:03.115Z,14.5
2017-05-10T20:57:03.364Z,14.4
2017-05-10T21:02:02.927Z,14.3
2017-05-10T21:07:03.076Z,14.1
2017-05-10T21:12:03.512Z,14.0
2017-05-10T21:17:03.198Z,13.8
2017-05-10T21:22:03.103Z,13.8
2017-05-10T21:27:03.315Z,13.6
2017-05-10T21:32:03.596Z,13.3
2017-05-10T21:37:02.974Z,13.2
2017-05-10T21:42:03.117Z,13.1
2017-05-10T21:47:03.432Z,13.0
2017-05-10T21:52:02.858Z,12.9
2017-05-10T21:57:03.077Z,12.8
2017-05-10T22:02:03.486Z,12.5
2017-05-10T22:07:03.050Z,12.3
2017-05-10T22:12:03.037Z,12.2
2017-05-10T22:22:03.131Z,11.9
2017-05-10T22:27:03.309Z,11.9
2017-05-10T22:32:02.882Z,11.9
2017-05-10T22:37:03.330Z,11.8
2017-05-10T22:42:03.019Z,11.7
2017-05-10T22:47:03.638Z,11.6
2017-05-10T22:52:03.532Z,11.4
2017-05-10T22:57:03.222Z,11.4
2017-05-10T23:02:03.048Z,11.1
2017-05-10T23:07:03.129Z,11.1
2017-05-10T23:12:03.060Z,10.9
2017-05-10T23:17:03.075Z,10.9
2017-05-10T23:22:02.840Z,10.8
2017-05-10T23:27:03.688Z,10.8
2017-05-10T23:32:03.578Z,10.8
2017-05-10T23:37:02.774Z,10.8
2017-05-10T23:42:02.705Z,10.8
2017-05-10T23:47:02.832Z,10.4
2017-05-10T23:52:02.881Z,10.4
2017-05-10T23:57:03.529Z,10.3
